Terminal Aerodrome Forecast
Issued by NWS

Home | Current Version | Previous Version | Text Only | Print | Product List | Glossary On
Versions: 1 2 3 4 5 6 7 8 9 10 11 12 13 14 15 16 17 18 19 20 21 22 23 24 25 26 27 28 29 30
000
FTUS45 KBOI 052335
TAFTWF
TAF
KTWF 052335Z 0600/0624 28007KT P6SM VCTS BKN080CB OVC120
      TEMPO 0600/0602 20018G28KT
     FM060700 21010KT P6SM BKN120
     FM062200 29010G20KT P6SM VCTS FEW080CB BKN120=

USA.gov is the U.S. government's official web portal to all federal, state and local government web resources and services.